createdAt,value
2018-08-19T00:00:32.027Z,63.76
2018-08-19T00:01:32.057Z,63.53
2018-08-19T00:02:32.079Z,64.11
2018-08-19T00:03:32.099Z,64.01
2018-08-19T00:04:32.128Z,63.82
2018-08-19T00:05:32.183Z,64.79
2018-08-19T00:06:32.198Z,64.69
2018-08-19T00:07:32.261Z,64.11
2018-08-19T00:08:32.234Z,64.11
2018-08-19T00:09:32.256Z,64.40
2018-08-19T00:10:32.286Z,64.50
2018-08-19T00:11:32.306Z,64.31
2018-08-19T00:12:32.333Z,64.89
2018-08-19T00:13:32.362Z,64.59
2018-08-19T00:14:32.389Z,64.40
2018-08-19T00:15:32.411Z,64.89
2018-08-19T00:16:32.437Z,64.40
2018-08-19T00:18:32.481Z,64.59
2018-08-19T00:19:32.514Z,64.11
2018-08-19T00:20:32.541Z,63.63
2018-08-19T00:21:32.568Z,64.27
2018-08-19T00:22:32.582Z,64.01
2018-08-19T00:23:32.630Z,63.53
2018-08-19T00:24:32.637Z,63.82
2018-08-19T00:25:32.665Z,63.92
2018-08-19T00:26:32.713Z,64.40
2018-08-19T00:27:32.726Z,63.53
2018-08-19T00:28:32.736Z,63.92
2018-08-19T00:29:32.766Z,63.34
2018-08-19T00:30:32.793Z,63.05
2018-08-19T00:31:32.833Z,62.66
2018-08-19T00:32:32.841Z,62.37
2018-08-19T00:33:32.870Z,62.95
2018-08-19T00:34:32.892Z,63.43
2018-08-19T00:35:32.923Z,62.85
2018-08-19T00:36:32.942Z,61.89
2018-08-19T00:37:32.972Z,61.98
2018-08-19T00:38:33.001Z,62.56
2018-08-19T00:39:33.027Z,62.37
2018-08-19T00:40:33.040Z,61.89
2018-08-19T00:41:33.067Z,62.56
2018-08-19T00:42:33.116Z,62.56
2018-08-19T00:43:33.118Z,62.56
2018-08-19T00:45:33.175Z,62.08
2018-08-19T00:46:33.202Z,61.89
2018-08-19T00:47:33.227Z,61.98
2018-08-19T00:48:33.247Z,62.08
2018-08-19T00:49:33.275Z,62.27
2018-08-19T00:50:33.331Z,62.37
2018-08-19T00:51:33.326Z,62.37
2018-08-19T00:52:33.348Z,62.56
2018-08-19T00:53:33.374Z,62.08
2018-08-19T00:55:33.427Z,62.08
2018-08-19T00:56:33.457Z,62.27
2018-08-19T00:57:33.471Z,62.66
2018-08-19T00:58:33.500Z,62.27
2018-08-19T00:59:33.530Z,62.66
2018-08-19T01:00:33.563Z,62.85
2018-08-19T01:01:33.578Z,62.56
2018-08-19T01:02:33.604Z,62.92
2018-08-19T01:03:33.671Z,63.21
2018-08-19T01:04:33.658Z,63.60
2018-08-19T01:05:33.675Z,64.08
2018-08-19T01:06:33.706Z,63.89
2018-08-19T01:07:33.790Z,63.92
2018-08-19T01:08:33.747Z,63.98
2018-08-19T01:09:33.778Z,64.01
2018-08-19T01:10:33.806Z,63.69
2018-08-19T01:11:33.830Z,63.98
2018-08-19T01:12:33.860Z,64.01
2018-08-19T01:13:33.884Z,64.11
2018-08-19T01:14:33.903Z,64.56
2018-08-19T01:15:33.932Z,64.56
2018-08-19T01:16:33.954Z,65.43
2018-08-19T01:17:33.977Z,65.34
2018-08-19T01:18:34.005Z,65.34
2018-08-19T01:19:34.037Z,64.95
2018-08-19T01:20:34.055Z,65.14
2018-08-19T01:21:34.123Z,64.66
2018-08-19T01:22:35.048Z,65.14
2018-08-19T01:23:34.138Z,64.85
2018-08-19T01:24:34.158Z,64.85
2018-08-19T01:25:35.044Z,65.53
2018-08-19T01:26:34.214Z,65.14
2018-08-19T01:27:34.240Z,65.34
2018-08-19T01:28:34.256Z,65.72
2018-08-19T01:29:34.278Z,65.43
2018-08-19T01:30:34.311Z,65.72
2018-08-19T01:31:34.334Z,66.40
2018-08-19T01:32:34.355Z,66.50
2018-08-19T01:33:34.392Z,65.72
2018-08-19T01:34:34.406Z,65.72
2018-08-19T01:35:34.429Z,66.27
2018-08-19T01:36:34.462Z,66.56
2018-08-19T01:37:34.489Z,65.53
2018-08-19T01:38:34.511Z,65.69
2018-08-19T01:39:34.534Z,66.36
2018-08-19T01:40:34.558Z,66.08
2018-08-19T01:41:34.592Z,66.17
2018-08-19T01:42:34.609Z,66.75
2018-08-19T01:43:34.649Z,66.94
2018-08-19T01:44:34.660Z,66.36
2018-08-19T01:45:34.686Z,66.27
2018-08-19T01:46:34.718Z,65.43
2018-08-19T01:47:34.732Z,66.17
2018-08-19T01:48:34.768Z,65.72
2018-08-19T01:49:34.781Z,65.69
2018-08-19T01:50:34.818Z,65.53
2018-08-19T01:51:34.833Z,65.92
2018-08-19T01:52:34.869Z,66.17
2018-08-19T01:53:34.879Z,65.78
2018-08-19T01:54:34.908Z,65.98
2018-08-19T01:55:34.932Z,66.11
2018-08-19T01:56:34.974Z,65.43
2018-08-19T01:57:34.996Z,66.75
2018-08-19T01:58:35.012Z,66.08
2018-08-19T01:59:35.036Z,66.36
2018-08-19T02:00:35.136Z,66.75
2018-08-19T02:01:35.085Z,66.56
2018-08-19T02:02:35.119Z,66.08
2018-08-19T02:03:35.146Z,64.95
2018-08-19T02:04:35.160Z,65.69
2018-08-19T02:05:35.184Z,65.69
2018-08-19T02:06:35.220Z,66.08
2018-08-19T02:07:35.250Z,66.08
2018-08-19T02:08:35.257Z,66.36
2018-08-19T02:09:35.286Z,66.17
2018-08-19T02:10:35.315Z,66.46
2018-08-19T02:11:35.334Z,66.56
2018-08-19T02:12:35.357Z,66.94
2018-08-19T02:13:35.377Z,66.75
2018-08-19T02:14:35.404Z,66.17
2018-08-19T02:15:35.432Z,66.94
2018-08-19T02:16:35.462Z,66.75
2018-08-19T02:17:35.480Z,65.98
2018-08-19T02:18:35.508Z,66.36
2018-08-19T02:20:35.570Z,65.50
2018-08-19T02:21:35.591Z,66.66
2018-08-19T02:22:35.661Z,66.66
2018-08-19T02:23:35.632Z,66.36
2018-08-19T02:24:35.665Z,65.50
2018-08-19T02:25:35.681Z,66.72
2018-08-19T02:26:35.713Z,66.27
2018-08-19T02:27:35.732Z,65.98
2018-08-19T02:28:35.764Z,66.56
2018-08-19T02:29:35.782Z,67.43
2018-08-19T02:30:35.805Z,67.04
2018-08-19T02:31:35.824Z,67.04
2018-08-19T02:32:35.866Z,67.52
2018-08-19T02:33:35.884Z,67.24
2018-08-19T02:34:35.908Z,67.04
2018-08-19T02:35:35.926Z,67.14
2018-08-19T02:36:35.948Z,67.04
2018-08-19T02:37:35.971Z,67.43
2018-08-19T02:38:36.001Z,67.52
2018-08-19T02:39:36.032Z,67.14
2018-08-19T02:40:36.052Z,67.43
2018-08-19T02:41:36.079Z,68.01
2018-08-19T02:42:36.095Z,67.52
2018-08-19T02:43:36.122Z,67.43
2018-08-19T02:44:36.151Z,67.33
2018-08-19T02:45:36.175Z,67.88
2018-08-19T02:46:36.202Z,67.62
2018-08-19T02:47:36.226Z,66.46
2018-08-19T02:48:36.250Z,65.30
2018-08-19T02:49:36.272Z,65.59
2018-08-19T02:50:36.299Z,65.11
2018-08-19T02:51:36.318Z,65.27
2018-08-19T02:52:36.345Z,65.88
2018-08-19T02:53:36.370Z,65.88
2018-08-19T02:54:36.393Z,66.43
2018-08-19T02:55:36.425Z,66.82
2018-08-19T02:56:36.446Z,66.91
2018-08-19T02:57:36.471Z,67.88
2018-08-19T02:58:36.492Z,67.69
2018-08-19T02:59:36.524Z,67.69
2018-08-19T03:01:36.567Z,67.69
2018-08-19T03:02:36.600Z,68.17
2018-08-19T03:03:36.631Z,67.88
2018-08-19T03:04:36.652Z,67.30
2018-08-19T03:05:36.678Z,67.62
2018-08-19T03:06:36.692Z,67.24
2018-08-19T03:07:36.717Z,66.72
2018-08-19T03:08:36.740Z,66.43
2018-08-19T03:09:36.794Z,66.63
2018-08-19T03:10:36.793Z,66.66
2018-08-19T03:11:36.815Z,67.11
2018-08-19T03:12:36.839Z,66.75
2018-08-19T03:13:36.873Z,66.43
2018-08-19T03:14:36.899Z,66.72
2018-08-19T03:15:36.916Z,66.27
2018-08-19T03:16:36.943Z,67.14
2018-08-19T03:17:36.963Z,66.43
2018-08-19T03:18:36.990Z,66.43
2018-08-19T03:19:37.022Z,67.20
2018-08-19T03:20:37.031Z,67.11
2018-08-19T03:21:37.068Z,67.59
2018-08-19T03:22:37.086Z,68.33
2018-08-19T03:23:37.110Z,69.39
2018-08-19T03:24:37.135Z,68.81
2018-08-19T03:25:37.161Z,68.46
2018-08-19T03:26:37.183Z,69.13
2018-08-19T03:27:37.212Z,68.94
2018-08-19T03:28:37.234Z,69.39
2018-08-19T03:29:37.256Z,70.06
2018-08-19T03:30:37.286Z,69.49
2018-08-19T03:31:37.308Z,69.62
2018-08-19T03:32:37.328Z,69.32
2018-08-19T03:33:37.357Z,69.23
2018-08-19T03:34:37.389Z,69.04
2018-08-19T03:35:37.404Z,69.42
2018-08-19T03:36:37.427Z,68.65
2018-08-19T03:37:37.457Z,69.13
2018-08-19T03:38:37.480Z,68.94
2018-08-19T03:39:37.502Z,68.94
2018-08-19T03:40:37.536Z,69.39
2018-08-19T03:41:37.561Z,69.87
2018-08-19T03:42:37.578Z,69.32
2018-08-19T03:43:37.603Z,69.39
2018-08-19T03:44:37.627Z,69.68
2018-08-19T03:45:37.651Z,69.71
2018-08-19T03:46:37.675Z,69.81
2018-08-19T03:47:37.700Z,69.97
2018-08-19T03:48:37.776Z,70.64
2018-08-19T03:49:37.783Z,70.94
2018-08-19T03:50:37.782Z,70.84
2018-08-19T03:51:37.800Z,70.54
2018-08-19T03:52:37.817Z,70.36
2018-08-19T03:53:37.839Z,70.84
2018-08-19T03:54:37.877Z,70.54
2018-08-19T03:55:37.899Z,69.39
2018-08-19T03:56:37.925Z,68.81
2018-08-19T03:57:37.944Z,68.52
2018-08-19T03:58:37.967Z,67.75
2018-08-19T03:59:38.000Z,68.04
2018-08-19T04:00:38.021Z,67.75
2018-08-19T04:01:38.040Z,68.17
2018-08-19T04:02:38.063Z,67.75
2018-08-19T04:03:38.141Z,68.62
2018-08-19T04:04:38.112Z,69.39
2018-08-19T04:05:38.139Z,69.29
2018-08-19T04:06:38.164Z,69.62
2018-08-19T04:07:38.197Z,69.58
2018-08-19T04:08:38.204Z,69.04
2018-08-19T04:09:38.232Z,69.39
2018-08-19T04:10:38.262Z,69.49
2018-08-19T04:11:38.340Z,69.68
2018-08-19T04:12:38.305Z,69.68
2018-08-19T04:13:38.331Z,69.49
2018-08-19T04:14:38.528Z,69.52
2018-08-19T04:15:38.384Z,68.26
2018-08-19T04:16:38.412Z,67.65
2018-08-19T04:17:38.429Z,66.49
2018-08-19T04:18:38.466Z,67.17
2018-08-19T04:19:38.474Z,67.17
2018-08-19T04:20:38.501Z,66.88
2018-08-19T04:21:38.529Z,67.27
2018-08-19T04:22:38.550Z,66.78
2018-08-19T04:23:38.650Z,67.69
2018-08-19T04:24:38.648Z,69.29
2018-08-19T04:25:38.643Z,70.16
2018-08-19T04:26:38.652Z,70.06
2018-08-19T04:27:38.675Z,70.36
2018-08-19T04:28:38.694Z,70.26
2018-08-19T04:29:38.717Z,70.16
2018-08-19T04:30:38.746Z,70.45
2018-08-19T04:31:38.768Z,70.74
2018-08-19T04:32:38.795Z,70.94
2018-08-19T04:33:38.817Z,70.74
2018-08-19T04:34:38.845Z,70.45
2018-08-19T04:35:38.869Z,70.06
2018-08-19T04:36:38.891Z,69.68
2018-08-19T04:37:38.911Z,69.78
2018-08-19T04:38:38.988Z,70.16
2018-08-19T04:39:39.015Z,70.36
2018-08-19T04:40:38.990Z,70.74
2018-08-19T04:41:39.008Z,70.94
2018-08-19T04:42:39.042Z,70.84
2018-08-19T04:43:39.068Z,71.70
2018-08-19T04:44:39.087Z,71.77
2018-08-19T04:45:39.115Z,71.70
2018-08-19T04:46:39.165Z,71.03
2018-08-19T04:47:39.176Z,71.90
2018-08-19T04:48:39.186Z,71.61
2018-08-19T04:49:39.205Z,71.96
2018-08-19T04:50:39.234Z,72.44
2018-08-19T04:51:39.256Z,72.00
2018-08-19T04:52:39.278Z,72.38
2018-08-19T04:53:39.299Z,71.42
2018-08-19T04:55:39.357Z,71.61
2018-08-19T04:56:39.379Z,71.61
2018-08-19T04:57:39.393Z,71.80
2018-08-19T04:58:39.423Z,71.77
2018-08-19T04:59:39.456Z,68.23
2018-08-19T05:00:39.475Z,67.91
2018-08-19T05:01:39.492Z,66.78
2018-08-19T05:02:39.640Z,67.46
2018-08-19T05:03:39.546Z,66.30
2018-08-19T05:04:39.575Z,66.78
2018-08-19T05:06:39.620Z,65.91
2018-08-19T05:07:39.649Z,66.40
2018-08-19T05:08:39.662Z,66.17
2018-08-19T05:09:39.700Z,66.69
2018-08-19T05:10:39.715Z,66.40
2018-08-19T05:11:39.735Z,66.88
2018-08-19T05:12:39.776Z,66.59
2018-08-19T05:13:39.794Z,66.88
2018-08-19T05:14:39.810Z,67.23
2018-08-19T05:15:39.912Z,66.36
2018-08-19T05:16:39.878Z,67.23
2018-08-19T05:17:39.884Z,67.91
2018-08-19T05:18:39.905Z,66.85
2018-08-19T05:19:39.937Z,66.27
2018-08-19T05:20:39.963Z,66.78
2018-08-19T05:21:39.981Z,66.49
2018-08-19T05:23:40.045Z,66.40
2018-08-19T05:24:40.069Z,66.30
2018-08-19T05:25:40.087Z,66.27
2018-08-19T05:26:40.103Z,66.59
2018-08-19T05:28:40.160Z,66.69
2018-08-19T05:29:40.183Z,66.49
2018-08-19T05:30:40.200Z,66.49
2018-08-19T05:31:40.315Z,66.49
2018-08-19T05:33:40.279Z,66.40
2018-08-19T05:34:40.295Z,67.17
2018-08-19T05:35:40.510Z,66.11
2018-08-19T05:36:40.353Z,65.88
2018-08-19T05:37:40.369Z,65.98
2018-08-19T05:38:40.401Z,65.53
2018-08-19T05:39:40.417Z,65.34
2018-08-19T05:40:40.446Z,65.43
2018-08-19T05:41:40.476Z,65.34
2018-08-19T05:42:40.495Z,65.53
2018-08-19T05:43:40.521Z,65.63
2018-08-19T05:44:40.545Z,65.53
2018-08-19T05:45:40.565Z,65.20
2018-08-19T05:46:40.599Z,65.43
2018-08-19T05:47:40.615Z,65.24
2018-08-19T05:48:40.633Z,65.34
2018-08-19T05:49:40.662Z,64.95
2018-08-19T05:50:40.689Z,65.14
2018-08-19T05:51:40.712Z,64.66
2018-08-19T05:52:40.740Z,64.37
2018-08-19T05:53:40.762Z,64.76
2018-08-19T05:54:40.776Z,65.05
2018-08-19T05:55:40.891Z,65.08
2018-08-19T05:56:40.829Z,64.28
2018-08-19T05:57:40.850Z,63.70
2018-08-19T05:58:40.881Z,63.50
2018-08-19T05:59:40.902Z,63.89
2018-08-19T06:00:40.925Z,63.31
2018-08-19T06:01:40.949Z,63.40
2018-08-19T06:02:40.970Z,62.92
2018-08-19T06:03:40.994Z,62.73
2018-08-19T06:04:41.023Z,62.44
2018-08-19T06:05:41.045Z,61.60
2018-08-19T06:06:41.074Z,61.77
2018-08-19T06:07:41.193Z,61.28
2018-08-19T06:08:41.119Z,61.67
2018-08-19T06:09:41.148Z,62.63
2018-08-19T06:10:41.171Z,62.57
2018-08-19T06:11:41.197Z,62.47
2018-08-19T06:12:41.218Z,62.82
2018-08-19T06:13:41.240Z,62.63
2018-08-19T06:15:41.292Z,61.96
2018-08-19T06:16:41.319Z,61.99
2018-08-19T06:17:41.341Z,62.37
2018-08-19T06:18:41.376Z,61.99
2018-08-19T06:19:41.418Z,61.99
2018-08-19T06:20:41.428Z,61.80
2018-08-19T06:21:42.435Z,60.73
2018-08-19T06:22:41.459Z,60.16
2018-08-19T06:23:41.487Z,60.25
2018-08-19T06:24:41.600Z,59.77
2018-08-19T06:25:41.535Z,59.86
2018-08-19T06:26:41.574Z,59.58
2018-08-19T06:27:41.586Z,59.77
2018-08-19T06:28:41.605Z,58.90
2018-08-19T06:29:41.635Z,58.51
2018-08-19T06:30:41.655Z,58.22
2018-08-19T06:31:41.687Z,58.42
2018-08-19T06:32:41.707Z,59.00
2018-08-19T06:33:41.733Z,58.70
2018-08-19T06:34:41.833Z,59.00
2018-08-19T06:35:41.777Z,57.87
2018-08-19T06:36:41.814Z,56.20
2018-08-19T06:38:41.850Z,55.42
2018-08-19T06:39:41.887Z,55.62
2018-08-19T06:40:41.905Z,55.55
2018-08-19T06:41:41.927Z,55.35
2018-08-19T06:42:41.957Z,55.65
2018-08-19T06:43:41.977Z,55.65
2018-08-19T06:44:42.004Z,55.55
2018-08-19T06:45:42.025Z,55.55
2018-08-19T06:46:42.053Z,55.55
2018-08-19T06:47:42.083Z,55.45
2018-08-19T06:48:42.104Z,55.55
2018-08-19T06:49:42.128Z,55.74
2018-08-19T06:50:42.155Z,56.03
2018-08-19T06:51:42.180Z,56.32
2018-08-19T06:52:42.201Z,56.32
2018-08-19T06:53:42.225Z,56.71
2018-08-19T06:55:42.280Z,55.93
2018-08-19T06:56:42.388Z,56.13
2018-08-19T06:57:42.322Z,55.93
2018-08-19T06:58:42.354Z,55.83
2018-08-19T06:59:42.380Z,56.48
2018-08-19T07:00:42.400Z,56.32
2018-08-19T07:01:42.434Z,55.83
2018-08-19T07:02:42.451Z,55.55
2018-08-19T07:03:42.653Z,55.55
2018-08-19T07:04:42.497Z,55.74
2018-08-19T07:05:42.522Z,55.74
2018-08-19T07:06:42.563Z,55.35
2018-08-19T07:07:42.570Z,55.16
2018-08-19T07:08:42.603Z,55.55
2018-08-19T07:09:42.629Z,55.65
2018-08-19T07:10:42.657Z,56.41
2018-08-19T07:11:42.672Z,56.71
2018-08-19T07:12:42.793Z,56.41
2018-08-19T07:13:42.718Z,56.03
2018-08-19T07:14:42.748Z,56.51
2018-08-19T07:15:42.780Z,56.80
2018-08-19T07:16:42.798Z,56.41
2018-08-19T07:17:42.832Z,56.13
2018-08-19T07:18:42.898Z,56.32
2018-08-19T07:19:42.882Z,56.03
2018-08-19T07:20:42.904Z,56.41
2018-08-19T07:21:42.931Z,56.32
2018-08-19T07:22:42.950Z,56.51
2018-08-19T07:23:43.003Z,56.32
2018-08-19T07:24:42.991Z,56.61
2018-08-19T07:25:43.028Z,56.41
2018-08-19T07:26:43.039Z,56.61
2018-08-19T07:27:43.074Z,56.90
2018-08-19T07:28:43.095Z,56.71
2018-08-19T07:29:43.175Z,56.71
2018-08-19T07:30:43.149Z,56.51
2018-08-19T07:31:43.171Z,56.61
2018-08-19T07:32:43.198Z,56.80
2018-08-19T07:33:43.225Z,56.71
2018-08-19T07:34:43.256Z,56.71
2018-08-19T07:35:43.268Z,56.32
2018-08-19T07:36:43.344Z,56.03
2018-08-19T07:37:43.322Z,56.15
2018-08-19T07:38:43.346Z,56.35
2018-08-19T07:39:43.380Z,55.77
2018-08-19T07:40:43.392Z,55.38
2018-08-19T07:41:43.416Z,55.55
2018-08-19T07:42:43.451Z,55.38
2018-08-19T07:43:43.474Z,55.38
2018-08-19T07:44:43.509Z,55.29
2018-08-19T07:45:43.524Z,55.35
2018-08-19T07:46:43.547Z,55.67
2018-08-19T07:47:43.577Z,55.29
2018-08-19T07:48:44.237Z,55.57
2018-08-19T07:49:43.615Z,55.67
2018-08-19T07:50:43.651Z,55.16
2018-08-19T07:51:43.721Z,55.57
2018-08-19T07:52:43.699Z,55.29
2018-08-19T07:53:43.737Z,55.96
2018-08-19T07:54:43.750Z,56.05
2018-08-19T07:55:43.771Z,55.77
2018-08-19T07:56:43.802Z,56.41
2018-08-19T07:57:43.843Z,56.51
2018-08-19T07:58:43.853Z,56.99
2018-08-19T07:59:43.874Z,56.83
2018-08-19T08:00:43.898Z,56.45
2018-08-19T08:01:44.739Z,56.05
2018-08-19T08:02:43.955Z,55.96
2018-08-19T08:03:43.979Z,56.54
2018-08-19T08:04:43.999Z,55.93
2018-08-19T08:05:44.033Z,55.67
2018-08-19T08:06:44.062Z,55.87
2018-08-19T08:07:44.077Z,55.87
2018-08-19T08:08:44.111Z,55.67
2018-08-19T08:10:44.151Z,56.13
2018-08-19T08:11:44.174Z,56.25
2018-08-19T08:12:44.205Z,55.65
2018-08-19T08:13:44.256Z,55.77
2018-08-19T08:14:44.253Z,55.19
2018-08-19T08:15:44.282Z,55.38
2018-08-19T08:16:44.311Z,55.47
2018-08-19T08:17:44.327Z,55.19
2018-08-19T08:18:44.352Z,55.47
2018-08-19T08:19:44.381Z,55.29
2018-08-19T08:20:44.410Z,55.57
2018-08-19T08:21:44.529Z,55.87
2018-08-19T08:22:44.471Z,55.38
2018-08-19T08:23:44.482Z,55.11
2018-08-19T08:24:44.518Z,54.83
2018-08-19T08:25:44.536Z,54.93
2018-08-19T08:26:44.569Z,55.60
2018-08-19T08:27:44.595Z,55.41
2018-08-19T08:28:44.622Z,55.51
2018-08-19T08:29:44.637Z,55.41
2018-08-19T08:30:44.721Z,55.11
2018-08-19T08:31:44.690Z,54.44
2018-08-19T08:32:44.741Z,54.53
2018-08-19T08:33:44.739Z,54.83
2018-08-19T08:34:44.769Z,54.53
2018-08-19T08:35:44.805Z,54.63
2018-08-19T08:36:44.830Z,54.57
2018-08-19T08:37:44.860Z,54.85
2018-08-19T08:38:44.892Z,54.37
2018-08-19T08:39:44.892Z,53.96
2018-08-19T08:40:45.004Z,53.47
2018-08-19T08:41:44.941Z,53.57
2018-08-19T08:42:44.968Z,53.47
2018-08-19T08:43:44.995Z,53.19
2018-08-19T08:44:45.098Z,53.19
2018-08-19T08:45:45.067Z,53.19
2018-08-19T08:46:45.074Z,53.86
2018-08-19T08:47:45.201Z,53.47
2018-08-19T08:48:45.260Z,53.47
2018-08-19T08:49:45.150Z,53.19
2018-08-19T08:50:45.188Z,53.47
2018-08-19T08:51:45.209Z,53.47
2018-08-19T08:52:45.232Z,53.96
2018-08-19T08:53:45.260Z,53.67
2018-08-19T08:54:45.291Z,53.69
2018-08-19T08:55:45.311Z,53.02
2018-08-19T08:56:45.331Z,52.73
2018-08-19T08:57:45.359Z,52.53
2018-08-19T08:58:45.389Z,52.24
2018-08-19T08:59:46.268Z,52.34
2018-08-19T09:00:45.434Z,52.14
2018-08-19T09:01:45.467Z,52.14
2018-08-19T09:02:45.485Z,51.95
2018-08-19T09:03:45.516Z,52.24
2018-08-19T09:04:45.553Z,52.34
2018-08-19T09:05:45.570Z,52.14
2018-08-19T09:06:45.601Z,52.14
2018-08-19T09:07:45.634Z,52.46
2018-08-19T09:08:45.725Z,52.17
2018-08-19T09:09:45.671Z,52.17
2018-08-19T09:10:45.737Z,52.08
2018-08-19T09:11:45.728Z,51.98
2018-08-19T09:12:45.757Z,51.78
2018-08-19T09:13:45.775Z,51.50
2018-08-19T09:14:45.808Z,51.40
2018-08-19T09:16:45.864Z,51.59
2018-08-19T09:17:45.891Z,51.78
2018-08-19T09:18:45.909Z,51.40
2018-08-19T09:19:45.938Z,51.13
2018-08-19T09:20:45.956Z,51.01
2018-08-19T09:21:45.992Z,50.52
2018-08-19T09:22:46.053Z,50.92
2018-08-19T09:23:46.045Z,51.20
2018-08-19T09:24:46.069Z,51.01
2018-08-19T09:25:46.090Z,50.24
2018-08-19T09:26:46.122Z,50.04
2018-08-19T09:27:46.145Z,49.95
2018-08-19T09:28:46.175Z,50.14
2018-08-19T09:29:46.203Z,50.04
2018-08-19T09:30:46.237Z,49.07
2018-08-19T09:31:46.294Z,49.27
2018-08-19T09:32:46.324Z,49.37
2018-08-19T09:33:46.305Z,49.17
2018-08-19T09:34:46.337Z,49.39
2018-08-19T09:35:46.361Z,49.87
2018-08-19T09:36:46.385Z,50.55
2018-08-19T09:37:46.419Z,50.72
2018-08-19T09:38:46.435Z,51.04
2018-08-19T09:39:46.474Z,51.13
2018-08-19T09:40:46.631Z,51.81
2018-08-19T09:41:46.518Z,51.90
2018-08-19T09:42:46.550Z,51.42
2018-08-19T09:43:46.569Z,51.13
2018-08-19T09:44:46.603Z,51.13
2018-08-19T09:45:46.634Z,51.04
2018-08-19T09:46:46.656Z,50.84
2018-08-19T09:47:46.788Z,50.84
2018-08-19T09:48:46.710Z,50.55
2018-08-19T09:49:46.758Z,50.35
2018-08-19T09:50:46.791Z,50.65
2018-08-19T09:51:46.847Z,50.77
2018-08-19T09:52:46.825Z,50.16
2018-08-19T09:54:46.919Z,50.84
2018-08-19T09:55:46.900Z,50.74
2018-08-19T09:56:46.928Z,50.67
2018-08-19T09:57:46.959Z,51.06
2018-08-19T09:58:46.978Z,49.99
2018-08-19T09:59:47.009Z,49.41
2018-08-19T10:00:47.049Z,48.74
2018-08-19T10:01:47.066Z,48.44
2018-08-19T10:02:47.096Z,48.44
2018-08-19T10:03:47.130Z,48.25
2018-08-19T10:04:47.135Z,47.96
2018-08-19T10:05:47.188Z,47.86
2018-08-19T10:06:47.237Z,48.25
2018-08-19T10:07:47.297Z,48.44
2018-08-19T10:08:47.250Z,48.54
2018-08-19T10:09:47.280Z,48.54
2018-08-19T10:10:47.309Z,48.15
2018-08-19T10:11:47.333Z,48.54
2018-08-19T10:12:47.361Z,48.64
2018-08-19T10:13:47.476Z,48.93
2018-08-19T10:14:47.406Z,48.93
2018-08-19T10:15:47.434Z,48.54
2018-08-19T10:16:47.533Z,48.83
2018-08-19T10:17:47.529Z,49.51
2018-08-19T10:18:47.514Z,48.83
2018-08-19T10:19:47.549Z,47.96
2018-08-19T10:20:47.593Z,47.09
2018-08-19T10:21:47.610Z,45.56
2018-08-19T10:22:47.632Z,44.40
2018-08-19T10:23:47.653Z,45.47
2018-08-19T10:24:47.677Z,46.43
2018-08-19T10:25:47.716Z,47.20
2018-08-19T10:26:47.749Z,48.08
2018-08-19T10:27:47.762Z,48.08
2018-08-19T10:28:47.788Z,47.50
2018-08-19T10:29:47.820Z,48.08
2018-08-19T10:30:47.859Z,47.69
2018-08-19T10:31:47.888Z,47.50
2018-08-19T10:32:47.906Z,47.02
2018-08-19T10:34:47.967Z,46.62
2018-08-19T10:35:47.995Z,46.53
2018-08-19T10:36:48.014Z,46.62
2018-08-19T10:37:48.041Z,47.02
2018-08-19T10:38:48.100Z,45.65
2018-08-19T10:39:48.101Z,45.47
2018-08-19T10:40:48.161Z,45.48
2018-08-19T10:41:48.152Z,44.71
2018-08-19T10:42:48.193Z,44.81
2018-08-19T10:43:48.204Z,44.61
2018-08-19T10:44:48.251Z,44.51
2018-08-19T10:45:48.264Z,44.71
2018-08-19T10:46:48.296Z,45.17
2018-08-19T10:47:48.319Z,44.61
2018-08-19T10:48:48.340Z,44.23
2018-08-19T10:49:48.370Z,44.23
2018-08-19T10:50:48.403Z,44.32
2018-08-19T10:51:48.435Z,43.64
2018-08-19T10:52:48.452Z,44.03
2018-08-19T10:54:48.512Z,44.15
2018-08-19T10:55:48.546Z,44.64
2018-08-19T10:56:48.581Z,45.21
2018-08-19T10:57:48.596Z,44.73
2018-08-19T10:58:48.657Z,44.34
2018-08-19T10:59:48.705Z,44.15
2018-08-19T11:00:48.680Z,44.34
2018-08-19T11:01:48.709Z,43.95
2018-08-19T11:02:48.750Z,44.24
2018-08-19T11:03:48.769Z,44.24
2018-08-19T11:04:48.804Z,44.24
2018-08-19T11:05:48.814Z,43.78
2018-08-19T11:06:48.865Z,43.68
2018-08-19T11:07:48.900Z,43.59
2018-08-19T11:08:48.903Z,44.07
2018-08-19T11:09:48.927Z,44.54
2018-08-19T11:10:48.973Z,43.78
2018-08-19T11:11:49.843Z,43.01
2018-08-19T11:12:49.022Z,42.33
2018-08-19T11:13:49.052Z,42.03
2018-08-19T11:14:49.068Z,41.53
2018-08-19T11:15:49.098Z,41.63
2018-08-19T11:16:49.135Z,41.36
2018-08-19T11:17:49.150Z,41.64
2018-08-19T11:18:49.199Z,41.14
2018-08-19T11:19:49.214Z,41.24
2018-08-19T11:20:49.239Z,41.24
2018-08-19T11:21:49.282Z,41.36
2018-08-19T11:22:49.293Z,40.77
2018-08-19T11:23:49.336Z,41.26
2018-08-19T11:24:49.361Z,41.24
2018-08-19T11:25:49.383Z,41.43
2018-08-19T11:26:49.406Z,41.45
2018-08-19T11:27:49.454Z,41.64
2018-08-19T11:28:49.462Z,41.92
2018-08-19T11:29:49.488Z,41.82
2018-08-19T11:30:49.522Z,42.52
2018-08-19T11:31:49.589Z,41.74
2018-08-19T11:32:49.583Z,42.13
2018-08-19T11:33:49.647Z,41.26
2018-08-19T11:34:49.644Z,41.16
2018-08-19T11:35:49.663Z,41.36
2018-08-19T11:36:49.700Z,42.13
2018-08-19T11:37:49.718Z,41.64
2018-08-19T11:38:49.748Z,41.36
2018-08-19T11:39:49.770Z,41.38
2018-08-19T11:40:49.799Z,41.86
2018-08-19T11:41:49.831Z,42.05
2018-08-19T11:42:49.862Z,42.15
2018-08-19T11:43:49.885Z,41.26
2018-08-19T11:44:49.925Z,40.60
2018-08-19T11:45:49.953Z,40.03
2018-08-19T11:46:49.986Z,40.50
2018-08-19T11:47:50.005Z,40.69
2018-08-19T11:48:50.103Z,40.41
2018-08-19T11:49:50.065Z,40.41
2018-08-19T11:50:50.118Z,40.69
2018-08-19T11:51:50.144Z,40.60
2018-08-19T11:52:50.162Z,40.69
2018-08-19T11:53:50.176Z,40.41
2018-08-19T11:54:50.203Z,40.89
2018-08-19T11:55:50.238Z,41.67
2018-08-19T11:56:50.261Z,41.69
2018-08-19T11:57:50.294Z,40.72
2018-08-19T11:58:50.318Z,40.03
2018-08-19T11:59:50.355Z,40.13
2018-08-19T12:00:50.376Z,39.86
2018-08-19T12:01:50.408Z,40.06
2018-08-19T12:03:50.461Z,40.52
2018-08-19T12:04:50.492Z,40.72
2018-08-19T12:05:50.529Z,40.33
2018-08-19T12:06:50.560Z,40.73
2018-08-19T12:07:50.575Z,41.22
2018-08-19T12:08:50.609Z,40.54
2018-08-19T12:09:50.640Z,40.54
2018-08-19T12:10:50.681Z,40.42
2018-08-19T12:11:50.692Z,40.72
2018-08-19T12:13:50.760Z,41.59
2018-08-19T12:14:50.777Z,41.39
2018-08-19T12:15:50.821Z,41.39
2018-08-19T12:16:50.869Z,41.39
2018-08-19T12:17:50.872Z,41.20
2018-08-19T12:18:50.899Z,41.30
2018-08-19T12:19:50.923Z,41.20
2018-08-19T12:20:50.966Z,41.49
2018-08-19T12:21:50.989Z,41.39
2018-08-19T12:22:51.011Z,41.49
2018-08-19T12:23:51.063Z,42.27
2018-08-19T12:24:51.073Z,42.18
2018-08-19T12:25:51.101Z,40.64
2018-08-19T12:26:51.135Z,41.32
2018-08-19T12:27:51.266Z,41.51
2018-08-19T12:28:51.217Z,41.80
2018-08-19T12:29:51.221Z,41.51
2018-08-19T12:30:51.256Z,41.71
2018-08-19T12:31:51.274Z,41.90
2018-08-19T12:32:51.322Z,41.22
2018-08-19T12:33:51.336Z,41.42
2018-08-19T12:34:51.366Z,41.51
2018-08-19T12:35:51.393Z,41.32
2018-08-19T12:36:51.962Z,41.69
2018-08-19T12:37:51.453Z,42.27
2018-08-19T12:38:51.486Z,42.00
2018-08-19T12:39:51.514Z,42.29
2018-08-19T12:40:51.581Z,42.49
2018-08-19T12:41:51.570Z,42.49
2018-08-19T12:42:51.624Z,42.10
2018-08-19T12:43:51.631Z,42.78
2018-08-19T12:44:51.743Z,42.97
2018-08-19T12:45:51.686Z,43.16
2018-08-19T12:46:51.721Z,42.49
2018-08-19T12:47:51.749Z,42.58
2018-08-19T12:48:51.774Z,42.97
2018-08-19T12:49:51.825Z,42.97
2018-08-19T12:50:51.837Z,42.78
2018-08-19T12:51:51.864Z,42.49
2018-08-19T12:52:51.893Z,42.39
2018-08-19T12:53:51.925Z,43.26
2018-08-19T12:54:51.953Z,43.36
2018-08-19T12:55:52.039Z,43.46
2018-08-19T12:56:52.002Z,42.87
2018-08-19T12:57:52.027Z,42.87
2018-08-19T12:58:52.080Z,43.16
2018-08-19T12:59:52.088Z,42.78
2018-08-19T13:00:52.131Z,42.68
2018-08-19T13:01:52.159Z,43.19
2018-08-19T13:02:52.186Z,43.38
2018-08-19T13:03:52.220Z,43.29
2018-08-19T13:04:52.241Z,43.38
2018-08-19T13:05:52.267Z,43.29
2018-08-19T13:06:52.293Z,43.75
2018-08-19T13:07:52.380Z,43.85
2018-08-19T13:08:52.362Z,43.65
2018-08-19T13:09:52.401Z,43.95
2018-08-19T13:10:52.416Z,44.04
2018-08-19T13:11:52.448Z,43.65
2018-08-19T13:12:52.470Z,43.58